createdAt,value
2023-04-06T00:00:17.578Z,20.58
2023-04-06T00:02:44.566Z,15.07
2023-04-06T00:05:11.858Z,16.70
2023-04-06T00:07:38.882Z,17.63
2023-04-06T00:10:06.704Z,19.70
2023-04-06T00:12:33.759Z,22.35
2023-04-06T00:15:02.591Z,19.42
2023-04-06T00:17:29.663Z,20.48
2023-04-06T00:19:56.629Z,16.63
2023-04-06T00:22:23.792Z,15.27
2023-04-06T00:24:51.259Z,16.13
2023-04-06T00:27:18.295Z,13.73
2023-04-06T00:29:46.411Z,14.43
2023-04-06T00:32:13.576Z,15.50
2023-04-06T00:34:40.744Z,12.98
2023-04-06T00:37:07.674Z,13.80
2023-04-06T00:39:34.767Z,16.15
2023-04-06T00:42:05.702Z,14.10
2023-04-06T00:44:33.167Z,11.38
2023-04-06T00:47:00.246Z,13.45
2023-04-06T00:49:27.722Z,11.05
2023-04-06T00:51:54.816Z,11.25
2023-04-06T00:54:22.013Z,10.52
2023-04-06T00:56:49.071Z,12.57
2023-04-06T00:59:16.778Z,14.52
2023-04-06T01:01:43.819Z,10.43
2023-04-06T01:04:11.344Z,19.95
2023-04-06T01:06:38.292Z,15.93
2023-04-06T01:09:05.301Z,15.80
2023-04-06T01:11:32.575Z,13.18
2023-04-06T01:13:59.589Z,13.35
2023-04-06T01:16:26.690Z,17.92
2023-04-06T01:18:53.890Z,10.95
2023-04-06T01:21:21.221Z,14.82
2023-04-06T01:23:48.196Z,12.80
2023-04-06T01:26:15.554Z,14.15
2023-04-06T01:28:42.648Z,13.35
2023-04-06T01:31:10.422Z,16.52
2023-04-06T01:33:37.551Z,18.17
2023-04-06T01:36:05.560Z,11.15
2023-04-06T01:38:32.575Z,12.38
2023-04-06T01:40:59.693Z,8.90
2023-04-06T01:43:26.781Z,11.18
2023-04-06T01:45:53.826Z,11.63
2023-04-06T01:48:21.337Z,8.73
2023-04-06T01:50:48.339Z,8.32
2023-04-06T01:53:16.717Z,12.07
2023-04-06T01:55:43.660Z,12.98
2023-04-06T01:58:10.804Z,9.00
2023-04-06T02:00:37.848Z,12.55
2023-04-06T02:03:05.006Z,15.57
2023-04-06T02:05:34.413Z,11.75
2023-04-06T02:08:01.409Z,12.85
2023-04-06T02:10:28.458Z,11.43
2023-04-06T02:12:55.506Z,9.15
2023-04-06T02:15:22.553Z,10.00
2023-04-06T02:17:49.711Z,11.43
2023-04-06T02:20:16.797Z,8.32
2023-04-06T02:22:43.750Z,12.50
2023-04-06T02:25:10.806Z,10.75
2023-04-06T02:27:38.153Z,10.18
2023-04-06T02:30:05.885Z,9.68
2023-04-06T02:32:32.870Z,10.50
2023-04-06T02:34:59.963Z,8.18
2023-04-06T02:37:27.065Z,11.02
2023-04-06T02:39:53.990Z,8.68
2023-04-06T02:42:21.057Z,8.45
2023-04-06T02:44:47.954Z,8.80
2023-04-06T02:47:14.953Z,6.65
2023-04-06T02:49:41.896Z,8.63
2023-04-06T02:52:08.901Z,8.70
2023-04-06T02:54:36.271Z,16.25
2023-04-06T02:57:03.412Z,10.55
2023-04-06T02:59:30.910Z,8.70
2023-04-06T03:01:58.014Z,8.55
2023-04-06T03:04:26.600Z,7.40
2023-04-06T03:06:56.222Z,9.13
2023-04-06T03:09:23.254Z,9.25
2023-04-06T03:11:50.511Z,9.50
2023-04-06T03:14:22.604Z,9.75
2023-04-06T03:16:50.184Z,10.82
2023-04-06T03:19:17.178Z,8.80
2023-04-06T03:21:44.170Z,6.25
2023-04-06T03:24:11.376Z,10.15
2023-04-06T03:26:38.322Z,8.60
2023-04-06T03:29:05.428Z,7.93
2023-04-06T03:31:32.409Z,6.60
2023-04-06T03:34:00.476Z,8.48
2023-04-06T03:36:27.891Z,7.50
2023-04-06T03:38:54.894Z,7.18
2023-04-06T03:41:22.087Z,8.95
2023-04-06T03:43:49.084Z,8.30
2023-04-06T03:46:16.127Z,6.68
2023-04-06T03:48:43.437Z,9.75
2023-04-06T03:51:10.551Z,11.35
2023-04-06T03:53:38.304Z,7.38
2023-04-06T03:56:06.067Z,9.63
2023-04-06T03:58:33.161Z,8.13
2023-04-06T04:01:00.132Z,8.32
2023-04-06T04:03:28.937Z,7.40
2023-04-06T04:05:58.767Z,12.15
2023-04-06T04:08:26.242Z,9.40
2023-04-06T04:10:53.277Z,8.93
2023-04-06T04:13:20.893Z,8.68
2023-04-06T04:15:48.769Z,9.23
2023-04-06T04:18:16.033Z,8.30
2023-04-06T04:20:42.982Z,11.18
2023-04-06T04:23:09.934Z,9.93
2023-04-06T04:25:36.877Z,9.00
2023-04-06T04:28:03.930Z,10.98
2023-04-06T04:30:30.910Z,9.48
2023-04-06T04:32:57.957Z,8.80
2023-04-06T04:35:24.932Z,11.50
2023-04-06T04:37:51.912Z,8.25
2023-04-06T04:40:18.789Z,9.10
2023-04-06T04:42:46.174Z,8.40
2023-04-06T04:45:13.182Z,8.43
2023-04-06T04:47:40.147Z,9.30
2023-04-06T04:50:07.485Z,7.93
2023-04-06T04:52:34.392Z,9.55
2023-04-06T04:55:01.799Z,8.52
2023-04-06T04:57:28.721Z,9.57
2023-04-06T04:59:57.927Z,10.77
2023-04-06T05:02:25.248Z,7.07
2023-04-06T05:04:52.382Z,10.23
2023-04-06T05:07:19.874Z,8.90
2023-04-06T05:09:46.864Z,9.93
2023-04-06T05:12:13.896Z,14.80
2023-04-06T05:14:41.563Z,10.63
2023-04-06T05:17:08.544Z,11.55
2023-04-06T05:19:35.599Z,9.68
2023-04-06T05:22:02.796Z,14.90
2023-04-06T05:24:29.734Z,15.90
2023-04-06T05:26:56.711Z,15.00
2023-04-06T05:29:23.650Z,12.50
2023-04-06T05:31:51.857Z,14.23
2023-04-06T05:34:18.858Z,13.02
2023-04-06T05:36:45.749Z,14.48
2023-04-06T05:39:13.533Z,16.45
2023-04-06T05:41:40.415Z,20.88
2023-04-06T05:44:07.363Z,16.85
2023-04-06T05:46:34.323Z,18.67
2023-04-06T05:49:01.426Z,14.02
2023-04-06T05:51:28.502Z,25.20
2023-04-06T05:53:55.654Z,28.70
2023-04-06T05:56:22.575Z,54.17
2023-04-06T05:58:49.602Z,30.02
2023-04-06T06:01:16.790Z,23.27
2023-04-06T06:03:43.710Z,10.85
2023-04-06T06:06:10.609Z,23.65
2023-04-06T06:08:37.539Z,10.90
2023-04-06T06:11:04.482Z,11.40
2023-04-06T06:13:31.418Z,13.23
2023-04-06T06:15:58.605Z,10.50
2023-04-06T06:18:25.945Z,8.77
2023-04-06T06:20:52.899Z,9.80
2023-04-06T06:23:19.773Z,11.13
2023-04-06T06:25:46.726Z,13.00
2023-04-06T06:28:13.633Z,10.13
2023-04-06T06:30:40.822Z,16.80
2023-04-06T06:33:08.061Z,22.15
2023-04-06T06:35:34.991Z,8.70
2023-04-06T06:38:01.965Z,9.88
2023-04-06T06:40:29.100Z,11.50
2023-04-06T06:42:56.135Z,13.70
2023-04-06T06:45:23.265Z,10.93
2023-04-06T06:47:51.675Z,18.75
2023-04-06T06:50:19.862Z,9.88
2023-04-06T06:52:46.857Z,12.98
2023-04-06T06:55:13.973Z,13.02
2023-04-06T06:57:43.440Z,10.48
2023-04-06T07:00:13.525Z,13.65
2023-04-06T07:02:41.182Z,9.82
2023-04-06T07:05:19.896Z,12.35
2023-04-06T07:07:51.293Z,11.02
2023-04-06T07:10:18.234Z,8.93
2023-04-06T07:12:45.165Z,9.27
2023-04-06T07:15:12.214Z,9.70
2023-04-06T07:17:39.418Z,11.15
2023-04-06T07:20:06.876Z,10.45
2023-04-06T07:22:33.972Z,33.63
2023-04-06T07:25:00.998Z,13.07
2023-04-06T07:27:27.840Z,13.75
2023-04-06T07:29:54.836Z,10.73
2023-04-06T07:32:21.745Z,12.65
2023-04-06T07:34:48.904Z,9.90
2023-04-06T07:37:15.984Z,13.52
2023-04-06T07:39:42.877Z,13.80
2023-04-06T07:42:10.077Z,10.30
2023-04-06T07:44:37.052Z,16.95
2023-04-06T07:47:04.000Z,9.40
2023-04-06T07:49:31.496Z,10.93
2023-04-06T07:51:58.535Z,13.10
2023-04-06T07:54:25.615Z,8.23
2023-04-06T07:56:52.547Z,11.15
2023-04-06T07:59:19.510Z,7.85
2023-04-06T08:01:46.522Z,7.68
2023-04-06T08:04:13.688Z,7.50
2023-04-06T08:06:42.074Z,8.38
2023-04-06T08:09:09.107Z,11.23
2023-04-06T08:11:36.190Z,6.47
2023-04-06T08:14:03.201Z,5.05
2023-04-06T08:16:30.131Z,6.43
2023-04-06T08:18:56.991Z,6.38
2023-04-06T08:21:24.230Z,6.43
2023-04-06T08:23:51.417Z,4.68
2023-04-06T08:26:18.408Z,8.98
2023-04-06T08:28:47.051Z,6.40
2023-04-06T08:31:14.302Z,5.15
2023-04-06T08:33:41.214Z,6.53
2023-04-06T08:36:13.235Z,10.10
2023-04-06T08:38:41.071Z,5.30
2023-04-06T08:41:09.766Z,5.85
2023-04-06T08:44:00.131Z,6.05
2023-04-06T08:46:31.611Z,5.63
2023-04-06T08:49:00.461Z,6.15
2023-04-06T08:51:29.201Z,4.43
2023-04-06T08:53:57.885Z,7.80
2023-04-06T08:56:26.630Z,4.97
2023-04-06T08:58:55.940Z,5.65
2023-04-06T09:01:26.910Z,8.57
2023-04-06T09:03:58.726Z,7.63
2023-04-06T09:06:31.917Z,7.10
2023-04-06T09:08:59.200Z,5.65
2023-04-06T09:11:26.570Z,5.20
2023-04-06T09:13:57.320Z,5.07
2023-04-06T09:16:25.126Z,5.53
2023-04-06T09:18:52.130Z,6.40
2023-04-06T09:21:22.813Z,5.60
2023-04-06T09:24:02.247Z,7.72
2023-04-06T09:26:29.436Z,4.43
2023-04-06T09:28:58.600Z,4.78
2023-04-06T09:31:31.226Z,10.02
2023-04-06T09:33:58.709Z,4.22
2023-04-06T09:36:33.410Z,3.85
2023-04-06T09:39:05.682Z,3.53
2023-04-06T09:41:34.760Z,6.53
2023-04-06T09:44:09.537Z,5.47
2023-04-06T09:52:57.563Z,6.00
2023-04-06T09:55:31.867Z,5.28
2023-04-06T09:58:08.465Z,10.05
2023-04-06T10:01:02.419Z,4.85
2023-04-06T10:03:50.743Z,5.18
2023-04-06T10:06:22.794Z,4.65
2023-04-06T10:08:52.792Z,6.03
2023-04-06T10:11:20.134Z,2.97
2023-04-06T10:13:50.010Z,2.53
2023-04-06T10:16:17.914Z,5.15
2023-04-06T10:18:57.701Z,3.25
2023-04-06T10:21:27.818Z,8.82
2023-04-06T10:24:02.937Z,3.63
2023-04-06T10:26:29.935Z,3.90
2023-04-06T10:29:03.541Z,7.22
2023-04-06T10:31:30.609Z,5.97
2023-04-06T10:33:59.983Z,3.33
2023-04-06T10:36:29.871Z,3.40
2023-04-06T10:39:05.398Z,2.72
2023-04-06T10:41:37.683Z,3.70
2023-04-06T10:44:04.807Z,4.72
2023-04-06T10:46:33.304Z,3.00
2023-04-06T10:49:12.665Z,3.70
2023-04-06T10:51:40.201Z,2.90
2023-04-06T10:54:09.098Z,1.92
2023-04-06T10:56:39.839Z,3.53
2023-04-06T10:59:07.627Z,3.50
2023-04-06T11:01:34.625Z,3.45
2023-04-06T11:04:01.752Z,3.70
2023-04-06T11:06:32.153Z,4.82
2023-04-06T11:08:59.769Z,2.92
2023-04-06T11:11:28.172Z,5.25
2023-04-06T11:13:57.962Z,3.35
2023-04-06T11:16:31.039Z,4.35
2023-04-06T11:19:03.070Z,2.50
2023-04-06T11:21:49.751Z,4.63
2023-04-06T11:24:20.321Z,4.05
2023-04-06T11:26:52.321Z,4.18
2023-04-06T11:29:21.380Z,9.18
2023-04-06T11:31:50.233Z,6.70
2023-04-06T11:34:25.002Z,3.67
2023-04-06T11:37:00.626Z,1.88
2023-04-06T11:39:29.398Z,3.17
2023-04-06T11:42:04.435Z,2.08
2023-04-06T11:44:47.067Z,3.20
2023-04-06T11:47:14.338Z,3.53
2023-04-06T11:49:43.199Z,4.82
2023-04-06T11:52:36.638Z,4.93
2023-04-06T11:55:17.746Z,4.20
2023-04-06T11:57:46.194Z,3.92
2023-04-06T12:00:13.664Z,5.55
2023-04-06T12:02:41.405Z,3.85
2023-04-06T12:05:09.523Z,5.32
2023-04-06T12:07:37.317Z,4.00
2023-04-06T12:10:04.955Z,8.48
2023-04-06T12:12:32.395Z,3.70
2023-04-06T12:14:59.977Z,3.58
2023-04-06T12:17:27.200Z,6.28
2023-04-06T12:19:54.263Z,8.27
2023-04-06T12:22:21.202Z,5.00
2023-04-06T12:24:48.252Z,4.22
2023-04-06T12:27:15.200Z,4.50
2023-04-06T12:29:42.942Z,2.40
2023-04-06T12:32:09.997Z,2.60
2023-04-06T12:34:37.141Z,3.15
2023-04-06T12:37:04.131Z,3.30
2023-04-06T12:39:31.416Z,4.35
2023-04-06T12:41:58.311Z,2.58
2023-04-06T12:44:26.839Z,4.63
2023-04-06T12:46:54.136Z,5.05
2023-04-06T12:49:21.405Z,4.28
2023-04-06T12:51:48.446Z,5.38
2023-04-06T12:54:15.449Z,3.50
2023-04-06T12:56:42.352Z,1.95
2023-04-06T12:59:09.372Z,2.42
2023-04-06T13:01:36.486Z,4.45
2023-04-06T13:04:03.561Z,2.92
2023-04-06T13:06:31.410Z,2.58
2023-04-06T13:08:58.468Z,4.10
2023-04-06T13:11:28.762Z,4.18
2023-04-06T13:13:56.035Z,4.22
2023-04-06T13:16:23.239Z,3.63
2023-04-06T13:18:51.357Z,4.65
2023-04-06T13:21:18.561Z,4.13
2023-04-06T13:23:45.779Z,4.65
2023-04-06T13:26:14.574Z,5.43
2023-04-06T13:28:42.642Z,3.75
2023-04-06T13:31:10.833Z,8.30
2023-04-06T13:33:38.303Z,2.97
2023-04-06T13:36:07.389Z,7.10
2023-04-06T13:38:34.897Z,4.72
2023-04-06T13:44:42.565Z,2.40
2023-04-06T13:47:09.490Z,3.95
2023-04-06T13:49:36.994Z,3.15
2023-04-06T13:52:04.006Z,1.90
2023-04-06T13:54:31.075Z,3.67
2023-04-06T13:56:58.053Z,2.25
2023-04-06T13:59:25.162Z,6.40
2023-04-06T14:01:52.206Z,3.88
2023-04-06T14:04:19.574Z,3.75
2023-04-06T14:06:47.623Z,2.70
2023-04-06T14:09:14.673Z,2.65
2023-04-06T14:11:41.652Z,2.53
2023-04-06T14:14:08.693Z,2.90
2023-04-06T14:16:35.838Z,2.80
2023-04-06T14:19:02.835Z,4.53
2023-04-06T14:21:29.879Z,4.13
2023-04-06T14:23:59.861Z,5.43
2023-04-06T14:26:27.718Z,6.22
2023-04-06T14:28:55.420Z,3.45
2023-04-06T14:31:22.578Z,2.72
2023-04-06T14:33:49.552Z,3.97
2023-04-06T14:36:16.639Z,8.15
2023-04-06T14:38:45.073Z,11.75
2023-04-06T14:41:20.534Z,3.47
2023-04-06T14:43:48.123Z,2.33
2023-04-06T14:46:19.320Z,3.50
2023-04-06T14:48:46.690Z,2.65
2023-04-06T14:51:13.981Z,2.90
2023-04-06T14:53:40.978Z,7.03
2023-04-06T14:56:08.241Z,3.05
2023-04-06T14:58:35.354Z,5.05
2023-04-06T15:01:03.282Z,2.97
2023-04-06T15:03:31.464Z,2.00
2023-04-06T15:05:59.027Z,2.60
2023-04-06T15:08:26.437Z,2.67
2023-04-06T15:10:53.611Z,4.15
2023-04-06T15:13:20.817Z,2.08
2023-04-06T15:15:47.798Z,3.40
2023-04-06T15:18:14.842Z,2.55
2023-04-06T15:20:42.349Z,4.78
2023-04-06T15:23:09.303Z,3.35
2023-04-06T15:25:36.298Z,17.73
2023-04-06T15:28:03.209Z,4.38
2023-04-06T15:30:30.304Z,3.00
2023-04-06T15:33:01.911Z,2.28
2023-04-06T15:35:30.186Z,2.95
2023-04-06T15:37:58.118Z,6.60
2023-04-06T15:40:26.265Z,3.20
2023-04-06T15:42:53.487Z,5.30
2023-04-06T15:45:20.564Z,3.72
2023-04-06T15:47:47.576Z,6.43
2023-04-06T15:50:14.842Z,3.50
2023-04-06T15:52:41.858Z,6.13
2023-04-06T15:55:09.586Z,3.47
2023-04-06T15:57:36.650Z,2.88
2023-04-06T16:00:04.996Z,3.83
2023-04-06T16:02:32.395Z,6.13
2023-04-06T16:05:03.119Z,4.30
2023-04-06T16:07:33.056Z,7.00
2023-04-06T16:10:00.709Z,3.97
2023-04-06T16:12:29.008Z,4.00
2023-04-06T16:14:56.182Z,25.65
2023-04-06T16:17:23.401Z,4.03
2023-04-06T16:19:50.674Z,5.53
2023-04-06T16:22:17.714Z,5.15
2023-04-06T16:24:44.738Z,5.15
2023-04-06T16:27:12.355Z,5.20
2023-04-06T16:29:39.440Z,3.75
2023-04-06T16:32:06.877Z,6.38
2023-04-06T16:34:34.465Z,5.25
2023-04-06T16:37:01.959Z,5.60
2023-04-06T16:39:29.219Z,4.53
2023-04-06T16:41:56.975Z,6.07
2023-04-06T16:44:23.957Z,5.10
2023-04-06T16:46:51.246Z,6.88
2023-04-06T16:49:20.218Z,7.80
2023-04-06T16:51:47.369Z,4.10
2023-04-06T16:54:14.365Z,7.78
2023-04-06T16:56:41.305Z,6.40
2023-04-06T16:59:11.417Z,6.10
2023-04-06T17:01:38.623Z,5.68
2023-04-06T17:04:06.137Z,5.90
2023-04-06T17:06:33.197Z,4.28
2023-04-06T17:09:00.297Z,4.72
2023-04-06T17:11:32.964Z,6.75
2023-04-06T17:14:10.740Z,8.43
2023-04-06T17:16:37.914Z,5.45
2023-04-06T17:19:05.075Z,6.40
2023-04-06T17:21:32.128Z,5.53
2023-04-06T17:23:59.072Z,5.65
2023-04-06T17:26:26.256Z,4.97
2023-04-06T17:28:53.594Z,6.75
2023-04-06T17:31:20.700Z,6.18
2023-04-06T17:33:47.873Z,4.90
2023-04-06T17:36:15.137Z,5.07
2023-04-06T17:38:44.262Z,8.55
2023-04-06T17:41:13.459Z,5.85
2023-04-06T17:43:40.988Z,6.28
2023-04-06T17:46:08.182Z,5.70
2023-04-06T17:48:35.231Z,8.95
2023-04-06T17:51:02.247Z,6.78
2023-04-06T17:53:34.571Z,6.30
2023-04-06T17:56:05.225Z,5.38
2023-04-06T17:58:32.200Z,9.10
2023-04-06T18:00:59.305Z,8.40
2023-04-06T18:03:26.373Z,6.25
2023-04-06T18:05:53.395Z,5.25
2023-04-06T18:08:21.760Z,5.63
2023-04-06T18:10:49.011Z,5.05
2023-04-06T18:13:16.379Z,4.38
2023-04-06T18:15:43.434Z,5.93
2023-04-06T18:18:11.653Z,6.75
2023-04-06T18:20:41.989Z,4.88
2023-04-06T18:23:09.152Z,8.82
2023-04-06T18:25:40.478Z,5.78
2023-04-06T18:28:08.923Z,6.72
2023-04-06T18:30:36.198Z,7.18
2023-04-06T18:33:04.197Z,8.93
2023-04-06T18:35:31.349Z,6.93
2023-04-06T18:37:58.272Z,11.60
2023-04-06T18:40:51.797Z,6.63
2023-04-06T18:43:18.769Z,4.47
2023-04-06T18:45:45.994Z,5.40
2023-04-06T18:48:13.873Z,5.45
2023-04-06T18:50:41.210Z,5.88
2023-04-06T18:53:08.201Z,7.65
2023-04-06T18:55:36.441Z,6.25
2023-04-06T18:58:03.481Z,7.60
2023-04-06T19:00:30.497Z,5.45
2023-04-06T19:02:57.656Z,6.45
2023-04-06T19:05:24.820Z,4.95
2023-04-06T19:07:52.615Z,7.18
2023-04-06T19:10:20.268Z,6.22
2023-04-06T19:12:48.218Z,5.07
2023-04-06T19:15:15.440Z,5.90
2023-04-06T19:17:42.637Z,6.30
2023-04-06T19:20:10.066Z,5.85
2023-04-06T19:22:37.615Z,6.35
2023-04-06T19:25:08.468Z,3.70
2023-04-06T19:27:35.430Z,6.80
2023-04-06T19:30:03.509Z,4.63
2023-04-06T19:32:30.932Z,4.60
2023-04-06T19:34:59.715Z,7.22
2023-04-06T19:37:26.707Z,4.45
2023-04-06T19:39:53.712Z,4.10
2023-04-06T19:42:22.050Z,5.03
2023-04-06T19:44:49.358Z,5.97
2023-04-06T19:47:16.342Z,5.82
2023-04-06T19:49:43.569Z,4.57
2023-04-06T19:52:10.798Z,4.55
2023-04-06T19:54:39.741Z,4.95
2023-04-06T19:57:08.272Z,5.18
2023-04-06T19:59:36.188Z,5.25
2023-04-06T20:02:03.274Z,6.78
2023-04-06T20:04:30.610Z,4.25
2023-04-06T20:06:57.796Z,5.95
2023-04-06T20:09:25.393Z,7.65
2023-04-06T20:11:54.159Z,7.65
2023-04-06T20:14:22.992Z,4.95
2023-04-06T20:16:51.001Z,6.72
2023-04-06T20:19:18.366Z,6.53
2023-04-06T20:21:45.376Z,7.20
2023-04-06T20:24:12.418Z,4.47
2023-04-06T20:26:39.468Z,4.07
2023-04-06T20:29:06.755Z,5.90
2023-04-06T20:31:33.827Z,4.93
2023-04-06T20:34:01.714Z,6.72
2023-04-06T20:36:31.654Z,7.38
2023-04-06T20:38:58.640Z,7.30
2023-04-06T20:41:25.754Z,6.85
2023-04-06T20:43:52.771Z,8.60
2023-04-06T20:46:20.181Z,5.60
2023-04-06T20:48:47.406Z,6.72
2023-04-06T20:51:23.427Z,6.03
2023-04-06T20:53:50.568Z,6.28
2023-04-06T20:56:17.790Z,6.85
2023-04-06T20:58:45.126Z,9.93
2023-04-06T21:01:14.393Z,6.22
2023-04-06T21:03:42.832Z,5.55
2023-04-06T21:06:10.735Z,6.78
2023-04-06T21:08:37.815Z,7.18
2023-04-06T21:11:05.216Z,8.52
2023-04-06T21:13:32.694Z,4.75
2023-04-06T21:15:59.819Z,6.30
2023-04-06T21:18:27.346Z,5.57
2023-04-06T21:20:54.385Z,11.27
2023-04-06T21:23:23.076Z,4.35
2023-04-06T21:25:55.856Z,6.05
2023-04-06T21:28:26.972Z,9.60
2023-04-06T21:30:54.619Z,4.93
2023-04-06T21:33:21.935Z,7.15
2023-04-06T21:35:49.088Z,6.30
2023-04-06T21:38:16.172Z,7.13
2023-04-06T21:40:43.109Z,7.03
2023-04-06T21:43:10.159Z,7.78
2023-04-06T21:45:37.101Z,9.13
2023-04-06T21:48:04.435Z,6.30
2023-04-06T21:50:31.551Z,11.80
2023-04-06T21:52:58.563Z,5.82
2023-04-06T21:55:25.602Z,8.45
2023-04-06T21:57:52.545Z,5.35
2023-04-06T22:00:20.076Z,10.82
2023-04-06T22:02:47.548Z,8.98
2023-04-06T22:05:14.818Z,6.63
2023-04-06T22:07:42.015Z,8.80
2023-04-06T22:10:09.050Z,5.32
2023-04-06T22:12:36.081Z,7.85
2023-04-06T22:15:03.309Z,10.65
2023-04-06T22:17:31.061Z,9.07
2023-04-06T22:19:58.004Z,10.77
2023-04-06T22:22:25.153Z,10.85
2023-04-06T22:24:52.225Z,9.75
2023-04-06T22:27:19.171Z,9.43
2023-04-06T22:29:46.222Z,11.95
2023-04-06T22:32:13.141Z,12.05
2023-04-06T22:34:40.131Z,11.07
2023-04-06T22:37:07.086Z,11.05
2023-04-06T22:39:34.110Z,12.88
2023-04-06T22:42:01.138Z,9.35
2023-04-06T22:44:28.105Z,10.82
2023-04-06T22:46:55.074Z,12.38
2023-04-06T22:49:21.990Z,13.75
2023-04-06T22:51:48.977Z,14.60
2023-04-06T22:54:15.916Z,14.57
2023-04-06T22:56:42.845Z,14.35
2023-04-06T22:59:09.844Z,16.65
2023-04-06T23:01:36.882Z,15.80
2023-04-06T23:04:04.066Z,15.65
2023-04-06T23:06:31.048Z,14.30
2023-04-06T23:08:57.941Z,19.80
2023-04-06T23:11:24.941Z,21.60
2023-04-06T23:13:51.966Z,17.73
2023-04-06T23:16:18.950Z,18.10
2023-04-06T23:18:46.140Z,18.42
2023-04-06T23:21:13.035Z,22.75
2023-04-06T23:23:40.002Z,19.40
2023-04-06T23:26:06.917Z,22.40
2023-04-06T23:28:33.850Z,21.70
2023-04-06T23:31:00.750Z,27.27
2023-04-06T23:33:29.120Z,23.65
2023-04-06T23:35:56.298Z,25.60
2023-04-06T23:38:23.426Z,22.58
2023-04-06T23:40:50.573Z,26.23
2023-04-06T23:43:17.500Z,26.40
2023-04-06T23:45:44.482Z,23.08
2023-04-06T23:48:11.458Z,21.90
2023-04-06T23:50:38.926Z,24.45
2023-04-06T23:53:06.147Z,27.95
2023-04-06T23:55:33.122Z,25.02
2023-04-06T23:58:02.042Z,27.83
